Terminal Aerodrome Forecast
Issued by NWS

Home | Current Version | Previous Version | Graphics & Text | Print | Product List | Glossary On
Versions: 1 2 3 4 5 6 7 8 9 10 11 12 13 14 15 16 17
000
FTUS43 KGRB 201603 AAA
TAFCWA
TAF AMD
KCWA 201603Z 2016/2112 28005KT P6SM SCT019 BKN040
      TEMPO 2016/2018 5SM -SHRA BR BKN019
     FM202000 30008KT P6SM BKN050
     FM202100 31007KT P6SM SCT060
     FM210000 30003KT P6SM SKC=

USA.gov is the U.S. government's official web portal to all federal, state and local government web resources and services.